Time;durP1;ratioP1;P1;durP2;ratioP2;P2;SDS_P1;SDS_P2;PMS_P1;PMS_P2;Temp;Humidity;BMP_temperature;BMP_pressure;BME280_temperature;BME280_humidity;BME280_pressure;Samples;Min_cycle;Max_cycle;Signal;HPM_P1;HPM_P2
2021/01/29 00:01:48;;;;;;;138.75;71.70;;;2.90;86.60;;;;;;5044120;28;20033;-64
2021/01/29 00:04:14;;;;;;;59.55;32.10;;;2.90;86.90;;;;;;5028720;28;20068;-63
2021/01/29 00:06:39;;;;;;;22.80;13.05;;;2.90;87.10;;;;;;5037746;28;20499;-61
2021/01/29 00:09:05;;;;;;;14.18;10.30;;;2.90;86.20;;;;;;5047517;28;20441;-59
2021/01/29 00:11:31;;;;;;;13.82;9.20;;;2.90;86.00;;;;;;5034667;28;20094;-62
2021/01/29 00:13:56;;;;;;;13.35;8.52;;;2.90;85.50;;;;;;5022644;28;20041;-62
2021/01/29 00:16:22;;;;;;;13.15;8.60;;;2.90;84.60;;;;;;5031588;28;20030;-61
2021/01/29 00:18:48;;;;;;;10.73;7.45;;;2.90;83.80;;;;;;5029193;28;20040;-62
2021/01/29 00:21:13;;;;;;;10.13;6.97;;;2.90;83.90;;;;;;5033190;28;20029;-60
2021/01/29 00:23:39;;;;;;;9.23;7.00;;;2.90;83.80;;;;;;5044109;28;20465;-60
2021/01/29 00:26:05;;;;;;;10.95;8.30;;;3.00;83.70;;;;;;5034954;28;20025;-63
2021/01/29 00:28:30;;;;;;;10.40;7.65;;;2.90;82.90;;;;;;5046229;28;20120;-62
2021/01/29 00:30:56;;;;;;;10.98;7.68;;;2.90;82.80;;;;;;5026569;28;20041;-62
2021/01/29 00:33:24;;;;;;;11.55;8.30;;;2.80;82.80;;;;;;5043389;28;20095;-60
2021/01/29 00:35:51;;;;;;;10.82;7.80;;;2.80;83.00;;;;;;5016853;28;20068;-61
2021/01/29 00:38:17;;;;;;;10.75;8.30;;;2.80;83.50;;;;;;5037323;28;20573;-58
2021/01/29 00:40:42;;;;;;;12.80;8.15;;;2.90;83.80;;;;;;5044964;28;20037;-60
2021/01/29 00:43:08;;;;;;;11.90;8.25;;;2.80;84.20;;;;;;5033075;28;20148;-58
2021/01/29 00:45:36;;;;;;;12.40;8.27;;;2.80;84.10;;;;;;5019425;28;20037;-60
2021/01/29 00:48:03;;;;;;;10.32;7.78;;;2.90;83.80;;;;;;5049011;28;20143;-61
2021/01/29 00:50:29;;;;;;;9.27;7.45;;;2.90;83.70;;;;;;5046557;28;20060;-61
2021/01/29 00:52:55;;;;;;;11.02;8.32;;;3.00;83.80;;;;;;5050490;28;20048;-61
2021/01/29 00:55:22;;;;;;;10.35;7.72;;;3.00;83.80;;;;;;5040309;28;20414;-63
2021/01/29 00:57:47;;;;;;;10.73;7.50;;;3.10;83.40;;;;;;5031137;28;20030;-63
2021/01/29 01:00:18;;;;;;;9.55;7.32;;;3.00;82.40;;;;;;5031723;28;20091;-62
2021/01/29 01:02:44;;;;;;;9.63;7.50;;;2.90;82.60;;;;;;5032335;28;20103;-63
2021/01/29 01:05:12;;;;;;;11.25;7.45;;;2.90;82.80;;;;;;5034376;28;20488;-63
2021/01/29 01:07:38;;;;;;;10.52;7.25;;;2.70;82.60;;;;;;5035620;28;20080;-61
2021/01/29 01:10:05;;;;;;;10.50;7.55;;;2.70;82.40;;;;;;5022684;28;20029;-61
2021/01/29 01:12:31;;;;;;;10.82;7.70;;;2.70;82.00;;;;;;5036684;28;20176;-59
2021/01/29 01:14:56;;;;;;;10.95;7.20;;;2.70;82.00;;;;;;4994890;28;20112;-60
2021/01/29 01:17:22;;;;;;;10.23;8.13;;;2.70;81.70;;;;;;5030940;28;20029;-60
2021/01/29 01:19:48;;;;;;;11.20;7.55;;;2.70;82.20;;;;;;5030730;28;20041;-62
2021/01/29 01:22:13;;;;;;;11.05;8.00;;;2.70;82.30;;;;;;5032265;28;20150;-63
2021/01/29 01:24:39;;;;;;;10.10;8.05;;;2.80;82.40;;;;;;5056198;23;20048;-59
2021/01/29 01:27:14;;;;;;;11.82;8.43;;;2.80;82.50;;;;;;5053403;28;20037;-54
2021/01/29 01:29:40;;;;;;;14.73;9.20;;;2.80;82.70;;;;;;5065360;28;20042;-59
2021/01/29 01:32:06;;;;;;;13.10;9.18;;;2.70;83.00;;;;;;5054463;28;20491;-57
2021/01/29 01:34:32;;;;;;;13.77;9.63;;;2.60;83.80;;;;;;5036337;28;20079;-58
2021/01/29 01:36:58;;;;;;;32.08;17.80;;;2.70;83.90;;;;;;5071370;28;20032;-52
2021/01/29 01:39:24;;;;;;;45.92;25.95;;;2.80;84.10;;;;;;5039524;28;20049;-58
2021/01/29 01:41:51;;;;;;;19.63;12.55;;;2.80;84.40;;;;;;5092623;28;20096;-57
2021/01/29 01:44:24;;;;;;;13.82;10.52;;;2.80;84.30;;;;;;5076226;28;20038;-55
2021/01/29 01:46:53;;;;;;;15.70;10.80;;;2.80;84.40;;;;;;5076013;28;20040;-58
2021/01/29 01:49:21;;;;;;;14.80;11.90;;;2.80;84.40;;;;;;5074636;28;20051;-58
2021/01/29 01:51:54;;;;;;;13.45;10.40;;;2.70;85.20;;;;;;5071939;28;20062;-58
2021/01/29 01:54:34;;;;;;;16.55;11.23;;;2.80;85.20;;;;;;5094478;28;20626;-52
2021/01/29 01:57:02;;;;;;;16.50;11.63;;;2.60;86.00;;;;;;5074960;28;20028;-53
2021/01/29 01:59:40;;;;;;;17.52;12.00;;;2.60;86.20;;;;;;5094418;28;20036;-56
2021/01/29 02:02:08;;;;;;;16.70;11.93;;;2.40;87.10;;;;;;5093463;28;20059;-60
2021/01/29 02:04:39;;;;;;;17.60;11.90;;;2.50;87.20;;;;;;5093942;28;20122;-60
2021/01/29 02:07:27;;;;;;;15.48;11.88;;;2.60;86.80;;;;;;5106618;28;20040;-57
2021/01/29 02:09:55;;;;;;;17.48;12.38;;;2.60;86.60;;;;;;5091402;28;20033;-58
2021/01/29 02:12:21;;;;;;;19.05;12.05;;;2.60;86.60;;;;;;5092245;28;20070;-57
2021/01/29 02:14:47;;;;;;;16.70;12.18;;;2.70;87.30;;;;;;5110123;28;20027;-55
2021/01/29 02:17:39;;;;;;;17.92;12.25;;;2.70;86.70;;;;;;5113720;28;20032;-56
2021/01/29 02:20:19;;;;;;;16.63;12.23;;;2.70;86.80;;;;;;5100489;28;20024;-56
2021/01/29 02:23:18;;;;;;;18.48;13.15;;;2.80;86.70;;;;;;5073143;28;20029;-61
2021/01/29 02:26:32;;;;;;;22.00;14.65;;;2.80;86.60;;;;;;5073689;28;20048;-56
2021/01/29 02:29:09;;;;;;;18.50;12.98;;;2.80;86.60;;;;;;5072972;28;20456;-56
2021/01/29 02:31:49;;;;;;;19.35;13.85;;;2.70;87.30;;;;;;5090988;28;20052;-59
2021/01/29 02:34:23;;;;;;;19.48;13.63;;;2.70;87.70;;;;;;5092484;28;20028;-58
2021/01/29 02:37:36;;;;;;;18.23;14.23;;;2.70;87.60;;;;;;5073482;28;20545;-57
2021/01/29 02:40:31;;;;;;;17.67;12.63;;;2.70;87.10;;;;;;5000625;28;20028;-57
2021/01/29 02:43:05;;;;;;;19.75;13.68;;;2.60;87.30;;;;;;5093342;28;20036;-53
2021/01/29 02:45:54;;;;;;;16.58;12.43;;;2.60;87.20;;;;;;5086401;28;20070;-59
2021/01/29 02:48:47;;;;;;;16.65;12.18;;;2.60;87.00;;;;;;5024099;28;20055;-56
2021/01/29 02:51:34;;;;;;;16.15;12.45;;;2.70;86.60;;;;;;5067083;28;20606;-54
2021/01/29 02:54:17;;;;;;;16.67;11.90;;;2.70;86.30;;;;;;5075176;28;20202;-53
2021/01/29 02:57:08;;;;;;;17.10;12.00;;;2.70;86.00;;;;;;5092645;28;20028;-55
2021/01/29 02:59:50;;;;;;;14.93;10.68;;;2.70;85.20;;;;;;5092751;28;20127;-56
2021/01/29 03:02:23;;;;;;;17.25;11.52;;;2.60;85.80;;;;;;5090966;28;20048;-56
2021/01/29 03:05:03;;;;;;;14.55;10.15;;;2.60;85.60;;;;;;5074418;28;20478;-52
2021/01/29 03:07:53;;;;;;;13.38;10.23;;;2.60;85.70;;;;;;5072532;28;20037;-54
2021/01/29 03:10:41;;;;;;;13.98;10.27;;;2.50;85.60;;;;;;5073676;28;20103;-58
2021/01/29 03:13:16;;;;;;;14.32;10.55;;;2.50;85.70;;;;;;5091465;28;20124;-56
2021/01/29 03:15:52;;;;;;;13.68;10.82;;;2.60;85.50;;;;;;5085608;28;20464;-56
2021/01/29 03:18:29;;;;;;;14.32;10.05;;;2.50;85.30;;;;;;5072584;28;20028;-55
2021/01/29 03:21:01;;;;;;;13.98;10.07;;;2.50;85.50;;;;;;5077500;28;20028;-55
2021/01/29 03:23:34;;;;;;;13.55;9.65;;;2.50;85.10;;;;;;5092313;28;20119;-57
2021/01/29 03:26:08;;;;;;;12.50;9.10;;;2.50;85.40;;;;;;5090853;28;20032;-54
2021/01/29 03:28:38;;;;;;;12.50;8.98;;;2.40;85.90;;;;;;5092137;28;20036;-59
2021/01/29 03:31:06;;;;;;;11.85;9.60;;;2.50;85.30;;;;;;5083235;28;20059;-57
2021/01/29 03:33:35;;;;;;;12.63;9.15;;;2.50;85.40;;;;;;5072268;28;20124;-54
2021/01/29 03:36:06;;;;;;;14.73;9.80;;;2.50;85.40;;;;;;5078105;28;20040;-56
2021/01/29 03:38:44;;;;;;;12.82;9.73;;;2.50;85.40;;;;;;5092333;28;20024;-55
2021/01/29 03:41:18;;;;;;;13.63;9.77;;;2.40;85.40;;;;;;5066876;28;20029;-51
2021/01/29 03:44:05;;;;;;;13.25;9.25;;;2.40;85.80;;;;;;5072432;28;20036;-56
2021/01/29 03:47:05;;;;;;;14.68;9.95;;;2.40;85.80;;;;;;5053939;28;20043;-59
2021/01/29 03:50:00;;;;;;;14.15;10.30;;;2.20;86.50;;;;;;5071687;28;20037;-56
2021/01/29 03:52:54;;;;;;;15.25;10.18;;;2.20;86.80;;;;;;5087814;28;20414;-56
2021/01/29 03:55:25;;;;;;;14.55;10.55;;;2.20;87.10;;;;;;5091637;28;20032;-55
2021/01/29 03:57:58;;;;;;;14.45;11.45;;;2.10;87.40;;;;;;5056011;28;20035;-56
2021/01/29 04:00:41;;;;;;;16.38;11.05;;;2.10;87.00;;;;;;5074346;28;21848;-57
2021/01/29 04:03:09;;;;;;;16.35;11.30;;;2.10;88.00;;;;;;5071544;28;20040;-57
2021/01/29 04:05:55;;;;;;;17.58;12.38;;;2.10;88.40;;;;;;5073678;28;20117;-58
2021/01/29 04:08:28;;;;;;;18.02;11.65;;;2.10;88.20;;;;;;5092175;28;20409;-56
2021/01/29 04:10:57;;;;;;;16.53;12.53;;;2.00;88.30;;;;;;5087532;28;20521;-55
2021/01/29 04:13:47;;;;;;;19.40;13.55;;;2.00;88.80;;;;;;5071877;28;20036;-56
2021/01/29 04:16:35;;;;;;;19.30;13.75;;;1.90;89.30;;;;;;5077586;28;20231;-57
2021/01/29 04:19:03;;;;;;;20.77;13.93;;;1.90;89.10;;;;;;5073780;28;20024;-57
2021/01/29 04:21:39;;;;;;;21.10;14.38;;;1.90;89.20;;;;;;5083918;28;20039;-53
2021/01/29 04:24:32;;;;;;;22.83;15.63;;;1.90;89.30;;;;;;5071210;28;20040;-56
2021/01/29 04:27:14;;;;;;;23.33;15.20;;;1.80;90.00;;;;;;5072602;28;20040;-56
2021/01/29 04:29:43;;;;;;;22.02;14.80;;;1.90;89.60;;;;;;5091929;28;20036;-56
2021/01/29 04:32:13;;;;;;;22.35;15.00;;;1.80;90.10;;;;;;5078973;28;20028;-55
2021/01/29 04:34:42;;;;;;;23.00;15.00;;;1.90;90.00;;;;;;5054371;28;20119;-55
2021/01/29 04:37:14;;;;;;;21.23;15.23;;;2.00;89.80;;;;;;5083487;28;20637;-56
2021/01/29 04:39:43;;;;;;;21.48;14.38;;;2.00;89.20;;;;;;5093709;28;20024;-57
2021/01/29 04:42:26;;;;;;;22.77;15.15;;;2.00;89.30;;;;;;5080721;28;20036;-55
2021/01/29 04:45:24;;;;;;;23.55;16.17;;;2.00;89.30;;;;;;5071241;28;20060;-57
2021/01/29 04:48:10;;;;;;;20.30;15.00;;;2.10;88.70;;;;;;5087735;28;20119;-58
2021/01/29 04:50:43;;;;;;;19.23;14.80;;;2.10;88.80;;;;;;5091260;28;20479;-59
2021/01/29 04:53:22;;;;;;;23.65;16.13;;;2.00;88.80;;;;;;5090858;28;20062;-57
2021/01/29 04:56:17;;;;;;;22.20;16.33;;;2.00;88.70;;;;;;5073112;28;20559;-55
2021/01/29 04:58:52;;;;;;;24.25;15.18;;;1.90;88.70;;;;;;5086107;28;20047;-56
2021/01/29 05:01:34;;;;;;;22.05;16.17;;;1.90;89.00;;;;;;5092453;28;20028;-54
2021/01/29 05:04:33;;;;;;;23.33;16.20;;;1.90;89.20;;;;;;5074418;28;20052;-62
2021/01/29 05:07:05;;;;;;;26.17;16.73;;;1.90;89.10;;;;;;5043203;28;20096;-55
2021/01/29 05:09:57;;;;;;;23.58;16.25;;;1.90;89.10;;;;;;5095054;28;20119;-57
2021/01/29 05:12:47;;;;;;;21.02;16.38;;;2.00;89.10;;;;;;5053502;28;20044;-54
2021/01/29 05:15:39;;;;;;;25.42;16.67;;;1.90;89.50;;;;;;5073913;28;20036;-52
2021/01/29 05:18:20;;;;;;;26.73;17.98;;;1.90;89.20;;;;;;5089518;28;20047;-59
2021/01/29 05:21:09;;;;;;;23.42;17.67;;;1.80;89.30;;;;;;5094260;28;20028;-57
2021/01/29 05:24:07;;;;;;;25.42;17.25;;;1.80;89.10;;;;;;5075086;28;20112;-55
2021/01/29 05:26:59;;;;;;;25.38;18.10;;;1.80;89.50;;;;;;5057380;28;20395;-59
2021/01/29 05:29:51;;;;;;;27.92;18.33;;;1.70;89.80;;;;;;5074332;28;20058;-53
2021/01/29 05:32:41;;;;;;;27.40;18.70;;;1.80;90.00;;;;;;5080881;28;20086;-57
2021/01/29 05:35:34;;;;;;;27.85;18.70;;;1.80;89.60;;;;;;5093944;28;20028;-56
2021/01/29 05:38:34;;;;;;;28.10;19.48;;;1.60;90.00;;;;;;5081865;28;20032;-56
2021/01/29 05:41:23;;;;;;;32.38;19.15;;;1.50;90.50;;;;;;5074134;28;20032;-56
2021/01/29 05:44:09;;;;;;;30.98;19.65;;;1.50;90.60;;;;;;5092313;28;20417;-55
2021/01/29 05:46:56;;;;;;;29.98;20.15;;;1.60;90.70;;;;;;5094427;28;20036;-59
2021/01/29 05:49:30;;;;;;;29.85;19.85;;;1.80;90.40;;;;;;5074133;28;20194;-56
2021/01/29 05:52:13;;;;;;;31.15;21.00;;;1.80;90.40;;;;;;5089878;28;20059;-55
2021/01/29 05:55:00;;;;;;;30.02;20.55;;;1.90;90.10;;;;;;5055840;28;20033;-56
2021/01/29 05:57:50;;;;;;;31.88;21.30;;;2.00;89.60;;;;;;5079195;28;20051;-55
2021/01/29 06:00:52;;;;;;;32.92;21.25;;;2.00;89.90;;;;;;5093877;28;20035;-56
2021/01/29 06:03:27;;;;;;;31.67;21.10;;;2.00;90.00;;;;;;5081541;28;20043;-54
2021/01/29 06:06:14;;;;;;;;;;;2.00;90.10;;;;;;5074146;28;20079;-59
2021/01/29 06:09:07;;;;;;;36.40;21.90;;;2.00;89.80;;;;;;5074227;28;19915;-55
2021/01/29 06:12:01;;;;;;;31.35;19.70;;;2.00;90.00;;;;;;5073837;28;20048;-57
2021/01/29 06:14:26;;;;;;;32.80;21.52;;;2.00;90.10;;;;;;5073281;28;20093;-59
2021/01/29 06:17:07;;;;;;;34.45;21.45;;;1.90;90.10;;;;;;5073281;28;20032;-55
2021/01/29 06:19:54;;;;;;;33.40;21.63;;;1.90;90.00;;;;;;5075495;28;20086;-54
2021/01/29 06:22:53;;;;;;;30.50;19.63;;;1.90;90.20;;;;;;5076424;28;20051;-53
2021/01/29 06:25:37;;;;;;;32.10;21.83;;;1.90;90.20;;;;;;5093710;28;20036;-58
2021/01/29 06:28:28;;;;;;;33.30;21.50;;;1.90;90.20;;;;;;5092168;28;20020;-57
2021/01/29 06:31:32;;;;;;;27.77;19.90;;;2.00;90.10;;;;;;5093673;28;20147;-54
2021/01/29 06:34:20;;;;;;;32.50;20.15;;;2.00;90.00;;;;;;5078988;28;20028;-56
2021/01/29 06:36:46;;;;;;;35.20;21.92;;;2.10;90.00;;;;;;5073016;28;20528;-55
2021/01/29 06:39:59;;;;;;;30.42;20.30;;;2.00;90.10;;;;;;5088691;28;20118;-54
2021/01/29 06:42:56;;;;;;;30.20;20.33;;;2.00;89.70;;;;;;5010729;28;20030;-59
2021/01/29 06:45:49;;;;;;;31.17;20.50;;;1.90;90.30;;;;;;5070342;28;20445;-57
2021/01/29 06:48:40;;;;;;;30.70;19.73;;;1.80;90.30;;;;;;5079145;28;20026;-56
2021/01/29 06:51:43;;;;;;;30.67;19.55;;;1.80;90.40;;;;;;5092962;28;20024;-57
2021/01/29 06:54:37;;;;;;;34.05;20.52;;;1.90;90.40;;;;;;5091989;28;20115;-57
2021/01/29 06:57:25;;;;;;;31.20;18.73;;;2.00;90.20;;;;;;5092859;28;20126;-56
2021/01/29 07:00:37;;;;;;;34.47;20.52;;;2.00;90.20;;;;;;5074046;28;20441;-58
2021/01/29 07:03:28;;;;;;;29.27;19.92;;;1.90;90.40;;;;;;5056755;28;20067;-61
2021/01/29 07:06:14;;;;;;;29.25;19.42;;;1.80;90.80;;;;;;5092530;28;20032;-57
2021/01/29 07:08:45;;;;;;;27.30;18.67;;;1.90;90.70;;;;;;5085054;28;20093;-57
2021/01/29 07:11:17;;;;;;;33.40;19.30;;;2.00;90.40;;;;;;5072924;28;20032;-52
2021/01/29 07:14:00;;;;;;;24.77;17.27;;;2.00;90.50;;;;;;5079963;28;20105;-58
2021/01/29 07:17:02;;;;;;;38.67;21.95;;;1.90;90.60;;;;;;5092824;28;20028;-56
2021/01/29 07:19:38;;;;;;;31.02;18.75;;;2.00;90.50;;;;;;5061037;28;20058;-56
2021/01/29 07:22:12;;;;;;;27.17;18.15;;;2.00;90.40;;;;;;5072406;28;20028;-54
2021/01/29 07:24:51;;;;;;;32.35;19.90;;;1.90;90.60;;;;;;5074840;22;20044;-81
2021/01/29 07:28:05;;;;;;;29.88;18.70;;;1.90;90.70;;;;;;5045981;28;20037;-80
2021/01/29 07:30:55;;;;;;;30.73;19.05;;;1.80;90.70;;;;;;5022442;28;20052;-81
2021/01/29 07:33:54;;;;;;;28.85;18.05;;;1.80;90.70;;;;;;5058889;28;21244;-80
2021/01/29 07:36:56;;;;;;;32.05;19.30;;;1.80;90.80;;;;;;5047141;28;20040;-81
2021/01/29 07:39:41;;;;;;;31.17;18.25;;;1.80;90.60;;;;;;5047281;28;20039;-81
2021/01/29 07:42:22;;;;;;;26.50;18.50;;;1.70;90.80;;;;;;5045720;28;20474;-80
2021/01/29 07:45:08;;;;;;;31.42;21.05;;;1.70;91.00;;;;;;5045991;28;20037;-82
2021/01/29 07:48:07;;;;;;;32.03;19.63;;;1.70;91.00;;;;;;5049106;28;20040;-81
2021/01/29 07:51:11;;;;;;;32.92;20.42;;;1.70;90.90;;;;;;5048848;28;20032;-82
2021/01/29 07:53:41;;;;;;;30.83;20.50;;;1.80;90.80;;;;;;5037869;28;20041;-81
2021/01/29 07:56:22;;;;;;;31.42;19.48;;;1.70;90.90;;;;;;5046202;28;20036;-81
2021/01/29 07:59:00;;;;;;;33.33;20.30;;;1.70;91.10;;;;;;5045715;28;20032;-80
2021/01/29 08:01:45;;;;;;;32.22;20.58;;;1.70;91.10;;;;;;5066949;28;20035;-82
2021/01/29 08:04:41;;;;;;;31.73;20.17;;;1.60;91.20;;;;;;5045516;28;20032;-82
2021/01/29 08:07:30;;;;;;;31.27;19.10;;;1.60;91.30;;;;;;5045104;28;20064;-82
2021/01/29 08:10:02;;;;;;;34.30;20.35;;;1.60;91.20;;;;;;5046014;28;20029;-82
2021/01/29 08:12:30;;;;;;;34.13;19.40;;;1.60;91.20;;;;;;5045188;28;20045;-81
2021/01/29 08:15:18;;;;;;;32.42;19.10;;;1.50;91.50;;;;;;5059521;28;20028;-82
2021/01/29 08:18:10;;;;;;;33.97;18.38;;;1.50;91.60;;;;;;5041716;28;20495;-82
2021/01/29 08:20:45;;;;;;;33.83;21.58;;;1.60;91.40;;;;;;5060462;28;20029;-82
2021/01/29 08:23:16;;;;;;;29.13;18.35;;;1.50;91.40;;;;;;5041283;28;20033;-82
2021/01/29 08:25:47;;;;;;;29.00;18.08;;;1.60;91.40;;;;;;5041211;28;20044;-82
2021/01/29 08:28:28;;;;;;;30.75;18.55;;;1.50;91.60;;;;;;5042293;28;20108;-81
2021/01/29 08:31:23;;;;;;;30.40;18.33;;;1.50;91.50;;;;;;5041582;28;20025;-83
2021/01/29 08:34:22;;;;;;;30.08;17.85;;;1.50;91.40;;;;;;5045361;28;20033;-82
2021/01/29 08:37:09;;;;;;;30.33;17.92;;;1.40;91.40;;;;;;5044479;28;20059;-83
2021/01/29 08:40:25;;;;;;;31.02;18.88;;;1.40;91.60;;;;;;5045222;28;20040;-82
2021/01/29 08:43:15;;;;;;;32.42;18.85;;;1.40;91.40;;;;;;5020060;28;20041;-81
2021/01/29 08:46:03;;;;;;;28.25;18.02;;;1.40;91.50;;;;;;5045329;28;20059;-82
2021/01/29 08:49:06;;;;;;;27.42;18.33;;;1.40;91.70;;;;;;5046466;28;20029;-83
2021/01/29 08:51:47;;;;;;;26.35;16.95;;;1.40;91.60;;;;;;5044610;28;20043;-82
2021/01/29 08:54:40;;;;;;;33.67;18.17;;;1.40;91.50;;;;;;5029318;28;20040;-82
2021/01/29 08:57:14;;;;;;;25.08;16.45;;;1.50;91.50;;;;;;5045526;28;20029;-82
2021/01/29 08:59:41;;;;;;;28.17;17.98;;;1.50;91.50;;;;;;5046111;28;20037;-81
2021/01/29 09:02:25;;;;;;;29.88;18.20;;;1.40;91.30;;;;;;5047689;28;20407;-81
2021/01/29 09:05:04;;;;;;;32.00;18.60;;;1.40;91.50;;;;;;5050613;28;20514;-81
2021/01/29 09:07:33;;;;;;;25.90;16.77;;;1.40;91.40;;;;;;5046788;28;20545;-82
2021/01/29 09:10:20;;;;;;;29.38;17.17;;;1.40;91.30;;;;;;5029260;28;20430;-80
2021/01/29 09:12:55;;;;;;;26.80;17.77;;;1.40;91.60;;;;;;5046561;28;20036;-81
2021/01/29 09:15:57;;;;;;;28.30;18.10;;;1.40;91.60;;;;;;5030072;28;20036;-82
2021/01/29 09:18:45;;;;;;;26.00;16.88;;;1.50;91.60;;;;;;5044612;28;20028;-81
2021/01/29 09:21:17;;;;;;;26.98;17.95;;;1.50;91.70;;;;;;5043930;28;20053;-80
2021/01/29 09:24:33;;;;;;;24.85;16.40;;;1.50;91.50;;;;;;5054636;28;20041;-81
2021/01/29 09:27:05;;;;;;;24.55;14.93;;;1.60;91.40;;;;;;5058003;28;20028;-81
2021/01/29 09:29:46;;;;;;;27.92;16.98;;;1.60;91.40;;;;;;5054701;28;20036;-83
2021/01/29 09:32:16;;;;;;;26.98;17.02;;;1.60;91.40;;;;;;5036792;28;20025;-82
2021/01/29 09:34:53;;;;;;;25.77;15.75;;;1.60;91.40;;;;;;5038027;28;20033;-83
2021/01/29 09:37:25;;;;;;;26.77;16.45;;;1.60;91.30;;;;;;5054390;28;20072;-82
2021/01/29 09:40:10;;;;;;;24.45;16.08;;;1.60;91.50;;;;;;5057937;28;20036;-82
2021/01/29 09:42:39;;;;;;;22.23;15.20;;;1.70;91.40;;;;;;5039518;28;20096;-84
2021/01/29 09:45:16;;;;;;;26.10;14.77;;;1.60;91.10;;;;;;5051338;28;20025;-83
2021/01/29 09:47:44;;;;;;;25.98;16.05;;;1.60;91.20;;;;;;5050436;28;20036;-83
2021/01/29 09:50:18;;;;;;;25.40;15.25;;;1.50;91.30;;;;;;5050937;28;20033;-82
2021/01/29 09:52:58;;;;;;;25.52;15.43;;;1.50;91.30;;;;;;5033974;28;20055;-82
2021/01/29 09:55:40;;;;;;;22.00;15.32;;;1.60;91.20;;;;;;5050519;28;20064;-81
2021/01/29 09:58:31;;;;;;;27.42;16.20;;;1.60;91.20;;;;;;5051161;28;20057;-83
2021/01/29 10:01:12;;;;;;;24.55;15.57;;;1.50;91.00;;;;;;5034699;28;20040;-83
2021/01/29 10:04:17;;;;;;;23.30;15.77;;;1.60;91.10;;;;;;5051712;28;20056;-83
2021/01/29 10:06:56;;;;;;;26.45;15.75;;;1.70;91.30;;;;;;5051314;28;20041;-83
2021/01/29 10:09:47;;;;;;;24.27;15.65;;;1.70;91.20;;;;;;5069149;28;20059;-84
2021/01/29 10:12:24;;;;;;;26.23;15.30;;;1.80;91.00;;;;;;5050766;28;20037;-84
2021/01/29 10:15:18;;;;;;;24.83;15.52;;;1.80;90.90;;;;;;5052763;28;20096;-83
2021/01/29 10:17:55;;;;;;;24.40;16.35;;;1.80;90.80;;;;;;5050807;28;20063;-83
2021/01/29 10:20:29;;;;;;;21.63;15.15;;;1.80;90.90;;;;;;5052381;28;20025;-83
2021/01/29 10:23:04;;;;;;;25.05;15.32;;;1.80;90.70;;;;;;5052762;28;20033;-83
2021/01/29 10:25:35;;;;;;;24.92;15.30;;;1.80;90.70;;;;;;5052060;28;20040;-85
2021/01/29 10:28:26;;;;;;;23.58;14.55;;;1.80;90.80;;;;;;5069073;28;20040;-84
2021/01/29 10:31:07;;;;;;;23.27;15.85;;;1.80;90.70;;;;;;5052303;28;20084;-83
2021/01/29 10:33:41;;;;;;;23.52;15.18;;;1.70;90.90;;;;;;5034307;28;20052;-82
2021/01/29 10:36:22;;;;;;;22.92;15.10;;;1.70;90.80;;;;;;5050712;28;20127;-83
2021/01/29 10:39:05;;;;;;;22.25;14.18;;;1.70;90.80;;;;;;5050635;28;20084;-82
2021/01/29 10:41:47;;;;;;;23.00;14.13;;;1.80;90.80;;;;;;5050132;28;20025;-84
2021/01/29 10:44:21;;;;;;;23.40;14.02;;;1.80;90.80;;;;;;5049196;28;20051;-83
2021/01/29 10:47:18;;;;;;;21.67;14.23;;;1.80;90.90;;;;;;5050107;28;20029;-83
2021/01/29 10:50:10;;;;;;;22.23;13.07;;;1.80;90.90;;;;;;5029814;28;20041;-83
2021/01/29 10:52:41;;;;;;;20.00;13.77;;;1.80;90.70;;;;;;5018414;28;20041;-84
2021/01/29 10:55:19;;;;;;;21.77;13.15;;;1.80;90.70;;;;;;5032469;28;20175;-83
2021/01/29 10:58:10;;;;;;;19.88;12.73;;;1.90;90.60;;;;;;5048467;28;20175;-83
2021/01/29 11:00:40;;;;;;;19.65;13.07;;;1.80;90.90;;;;;;5049646;28;20116;-83
2021/01/29 11:03:21;;;;;;;23.02;13.52;;;1.80;91.10;;;;;;5029172;28;20029;-83
2021/01/29 11:05:58;;;;;;;21.55;13.10;;;1.90;90.90;;;;;;5029131;28;20167;-82
2021/01/29 11:08:41;;;;;;;26.70;16.27;;;1.80;91.00;;;;;;5046710;28;20086;-80
2021/01/29 11:11:42;;;;;;;27.70;16.73;;;1.80;91.10;;;;;;5061100;28;20044;-83
2021/01/29 11:14:35;;;;;;;19.73;13.15;;;1.80;91.20;;;;;;5049885;28;20037;-82
2021/01/29 11:17:23;;;;;;;17.15;10.48;;;1.90;91.00;;;;;;5049033;28;20044;-83
2021/01/29 11:20:02;;;;;;;17.45;11.27;;;1.90;91.10;;;;;;5069469;28;20033;-84
2021/01/29 11:22:37;;;;;;;16.20;11.10;;;1.90;91.10;;;;;;5049829;28;20028;-84
2021/01/29 11:25:51;;;;;;;16.33;11.48;;;1.80;91.20;;;;;;5049917;28;20032;-83
2021/01/29 11:29:01;;;;;;;15.95;10.98;;;1.90;91.10;;;;;;4980683;28;20081;-83
2021/01/29 11:31:35;;;;;;;18.30;11.68;;;1.90;91.10;;;;;;5050390;28;20029;-82
2021/01/29 11:34:31;;;;;;;;;;;;;;;;;;;;;
2021/01/29 11:37:10;;;;;;;;;;;1.90;91.20;;;;;;5068399;28;20388;-84
2021/01/29 11:40:13;;;;;;;19.15;12.63;;;1.90;91.10;;;;;;5050029;28;19904;-84
2021/01/29 11:42:50;;;;;;;20.55;14.05;;;1.90;91.20;;;;;;5050666;28;20036;-85
2021/01/29 11:45:30;;;;;;;19.17;13.20;;;1.80;91.30;;;;;;5047871;28;20029;-83
2021/01/29 11:48:11;;;;;;;19.92;13.30;;;2.20;93.10;;;;;;5033397;28;20128;-82
2021/01/29 11:51:00;;;;;;;21.02;13.20;;;2.10;91.10;;;;;;5064628;28;20059;-82
2021/01/29 11:53:35;;;;;;;19.27;14.05;;;2.20;91.30;;;;;;5045829;28;21177;-83
2021/01/29 11:56:17;;;;;;;19.67;14.10;;;2.20;91.20;;;;;;5048139;28;20037;-82
2021/01/29 11:59:00;;;;;;;21.38;14.30;;;2.20;91.00;;;;;;5033617;28;20599;-79
2021/01/29 12:01:48;;;;;;;19.20;13.48;;;2.20;90.70;;;;;;5044971;28;20033;-82
2021/01/29 12:04:39;;;;;;;19.70;14.80;;;2.40;90.80;;;;;;5047763;28;20025;-82
2021/01/29 12:07:34;;;;;;;18.10;12.75;;;2.50;90.30;;;;;;5049794;28;20443;-78
2021/01/29 12:10:05;;;;;;;20.40;14.05;;;2.50;90.30;;;;;;5048214;28;20033;-82
2021/01/29 12:12:42;;;;;;;19.35;13.40;;;2.60;90.20;;;;;;5048343;28;20039;-82
2021/01/29 12:15:21;;;;;;;18.50;13.35;;;2.70;90.10;;;;;;5048880;28;20055;-82
2021/01/29 12:18:08;;;;;;;18.38;12.60;;;2.70;90.10;;;;;;5046444;28;20022;-82
2021/01/29 12:20:44;;;;;;;18.15;12.55;;;2.80;90.00;;;;;;5046924;28;20025;-77
2021/01/29 12:23:36;;;;;;;18.85;12.43;;;2.80;89.60;;;;;;5055603;28;20068;-82
2021/01/29 12:26:08;;;;;;;15.45;12.10;;;3.00;89.40;;;;;;5053300;28;20065;-82
2021/01/29 12:28:57;;;;;;;18.20;13.18;;;3.00;88.80;;;;;;5056609;28;20033;-80
2021/01/29 12:32:01;;;;;;;16.42;12.35;;;2.90;89.20;;;;;;5046952;28;20053;-80
2021/01/29 12:34:30;;;;;;;16.75;11.43;;;3.00;89.00;;;;;;5039345;28;20090;-81
2021/01/29 12:37:35;;;;;;;18.63;11.98;;;3.00;89.30;;;;;;5028438;28;20487;-81
2021/01/29 12:40:06;;;;;;;15.70;12.00;;;3.00;88.30;;;;;;5042488;28;20025;-81
2021/01/29 12:43:07;;;;;;;16.65;12.43;;;2.80;88.40;;;;;;5050103;28;20029;-81
2021/01/29 12:45:40;;;;;;;21.65;13.25;;;2.90;88.90;;;;;;5049327;22;20106;-61
2021/01/29 12:48:20;;;;;;;18.20;12.73;;;2.70;89.40;;;;;;5046500;28;20068;-60
2021/01/29 12:51:18;;;;;;;19.15;12.55;;;2.60;90.00;;;;;;5051343;28;20100;-60
2021/01/29 12:53:55;;;;;;;19.38;13.60;;;2.70;90.00;;;;;;5051219;28;20057;-62
2021/01/29 12:56:26;;;;;;;20.20;12.45;;;2.70;89.90;;;;;;5050958;28;20062;-61
2021/01/29 12:59:01;;;;;;;18.13;13.00;;;2.80;89.60;;;;;;5050851;28;20155;-62
2021/01/29 13:01:35;;;;;;;17.98;13.52;;;2.80;89.40;;;;;;5039628;28;20037;-60
2021/01/29 13:04:33;;;;;;;16.48;12.30;;;2.90;89.20;;;;;;5042325;28;20045;-61
2021/01/29 13:07:15;;;;;;;18.17;12.88;;;2.90;88.90;;;;;;5051153;28;20154;-60
2021/01/29 13:09:56;;;;;;;15.63;11.90;;;3.00;88.50;;;;;;5050960;28;20387;-63
2021/01/29 13:12:43;;;;;;;18.02;12.73;;;3.00;88.50;;;;;;5051665;28;20477;-61
2021/01/29 13:15:09;;;;;;;16.80;12.13;;;3.00;88.40;;;;;;5051678;28;20029;-60
2021/01/29 13:17:42;;;;;;;17.95;12.75;;;3.00;88.50;;;;;;5035135;28;20082;-62
2021/01/29 13:20:13;;;;;;;17.77;12.27;;;3.00;88.50;;;;;;5054234;28;20039;-55
2021/01/29 13:22:48;;;;;;;19.20;12.95;;;3.00;88.50;;;;;;5054920;28;20036;-58
2021/01/29 13:25:19;;;;;;;18.48;12.15;;;3.00;88.60;;;;;;5041363;28;20033;-64
2021/01/29 13:28:01;;;;;;;21.42;13.10;;;3.00;88.40;;;;;;5035493;28;20496;-62
2021/01/29 13:30:33;;;;;;;18.80;13.18;;;3.10;88.30;;;;;;5049063;28;20041;-62
2021/01/29 13:33:12;;;;;;;19.70;13.23;;;3.00;88.10;;;;;;5050892;28;20029;-63
2021/01/29 13:35:40;;;;;;;17.15;12.32;;;3.00;88.40;;;;;;5052887;28;20052;-63
2021/01/29 13:38:35;;;;;;;17.65;12.65;;;3.10;88.40;;;;;;5054014;28;20116;-62
2021/01/29 13:41:14;;;;;;;18.98;13.13;;;3.20;88.20;;;;;;5033435;28;20108;-63
2021/01/29 13:43:42;;;;;;;17.08;12.60;;;3.20;87.90;;;;;;5036237;28;20045;-62
2021/01/29 13:46:26;;;;;;;18.08;13.20;;;3.20;87.90;;;;;;5053903;28;20037;-62
2021/01/29 13:49:12;;;;;;;19.20;12.55;;;3.20;87.80;;;;;;5050276;28;20037;-60
2021/01/29 13:51:38;;;;;;;20.95;15.95;;;3.20;87.80;;;;;;5053320;28;20114;-63